createdAt,value
2023-02-08T00:01:19.535Z,100346.06
2023-02-08T00:03:46.788Z,100345.16
2023-02-08T00:09:04.354Z,100340.94
2023-02-08T00:11:30.871Z,100333.16
2023-02-08T00:13:57.456Z,100325.69
2023-02-08T00:16:24.005Z,100323.41
2023-02-08T00:18:50.575Z,100318.88
2023-02-08T00:21:18.969Z,100314.41
2023-02-08T00:23:46.522Z,100309.41
2023-02-08T00:26:13.444Z,100307.22
2023-02-08T00:28:40.064Z,100308.47
2023-02-08T00:31:06.828Z,100307.34
2023-02-08T00:33:33.563Z,100306.41
2023-02-08T00:36:01.656Z,100303.97
2023-02-08T00:38:28.925Z,100301.03
2023-02-08T00:40:55.453Z,100302.56
2023-02-08T00:43:22.038Z,100296.63
2023-02-08T00:45:54.064Z,100303.59
2023-02-08T00:48:20.996Z,100303.59
2023-02-08T00:51:04.773Z,100296.63
2023-02-08T00:53:31.577Z,100310.22
2023-02-08T00:55:58.194Z,100319.19
2023-02-08T00:58:24.809Z,100301.97
2023-02-08T01:00:53.466Z,100307.78
2023-02-08T01:03:23.226Z,100313.81
2023-02-08T01:05:49.838Z,100319.75
2023-02-08T01:08:16.824Z,100316.50
2023-02-08T01:10:43.375Z,100320.19
2023-02-08T01:13:10.097Z,100319.50
2023-02-08T01:15:37.382Z,100322.31
2023-02-08T01:18:04.406Z,100322.06
2023-02-08T01:20:31.430Z,100326.13
2023-02-08T01:22:57.945Z,100315.44
2023-02-08T01:25:24.488Z,100320.34
2023-02-08T01:27:51.099Z,100316.38
2023-02-08T01:30:17.803Z,100313.91
2023-02-08T01:32:44.380Z,100312.19
2023-02-08T01:35:10.933Z,100305.56
2023-02-08T01:37:37.434Z,100305.66
2023-02-08T01:40:04.431Z,100296.22
2023-02-08T01:42:30.973Z,100294.47
2023-02-08T01:45:15.925Z,100300.41
2023-02-08T01:47:44.325Z,100298.13
2023-02-08T01:50:11.333Z,100302.03
2023-02-08T01:52:38.792Z,100296.47
2023-02-08T01:55:20.654Z,100286.97
2023-02-08T01:57:52.642Z,100282.97
2023-02-08T02:00:22.590Z,100281.13
2023-02-08T02:02:53.566Z,100283.56
2023-02-08T02:05:26.644Z,100275.78
2023-02-08T02:07:55.784Z,100275.69
2023-02-08T02:10:27.964Z,100266.72
2023-02-08T02:12:58.240Z,100272.75
2023-02-08T02:15:24.950Z,100268.22
2023-02-08T02:17:51.517Z,100261.38
2023-02-08T02:20:25.469Z,100262.88
2023-02-08T02:23:10.472Z,100250.31
2023-02-08T02:25:52.154Z,100252.78
2023-02-08T02:28:43.441Z,100249.25
2023-02-08T02:31:28.676Z,100250.66
2023-02-08T02:34:26.376Z,100248.47
2023-02-08T02:37:18.375Z,100245.69
2023-02-08T02:40:02.741Z,100242.53
2023-02-08T02:43:27.630Z,100244.50
2023-02-08T02:49:17.811Z,100249.91
2023-02-08T02:51:50.591Z,100249.31
2023-02-08T02:54:19.449Z,100249.44
2023-02-08T02:56:50.192Z,100256.84
2023-02-08T02:59:18.167Z,100254.63
2023-02-08T03:04:33.700Z,100255.00
2023-02-08T03:07:13.766Z,100260.94
2023-02-08T03:10:14.610Z,100253.72
2023-02-08T03:12:49.794Z,100257.97
2023-02-08T03:18:34.446Z,100254.97
2023-02-08T03:21:24.492Z,100257.34
2023-02-08T03:26:54.292Z,100258.44
2023-02-08T03:29:32.055Z,100253.56
2023-02-08T03:32:09.234Z,100264.75
2023-02-08T03:34:51.713Z,100260.69
2023-02-08T03:40:06.393Z,100252.38
2023-02-08T03:42:35.257Z,100253.91
2023-02-08T03:45:08.757Z,100254.50
2023-02-08T03:47:39.385Z,100252.50
2023-02-08T03:50:10.886Z,100256.91
2023-02-08T03:52:39.234Z,100264.56
2023-02-08T03:55:12.301Z,100264.56
2023-02-08T03:57:48.175Z,100251.97
2023-02-08T04:00:17.185Z,100258.78
2023-02-08T04:02:52.076Z,100249.97
2023-02-08T04:07:51.919Z,100268.00
2023-02-08T04:10:18.837Z,100254.19
2023-02-08T04:12:47.247Z,100259.19
2023-02-08T04:15:13.808Z,100253.03
2023-02-08T04:17:40.348Z,100253.22
2023-02-08T04:20:07.209Z,100260.59
2023-02-08T04:22:33.798Z,100245.28
2023-02-08T04:25:00.404Z,100249.13
2023-02-08T04:27:27.067Z,100240.06
2023-02-08T04:29:53.628Z,100253.09
2023-02-08T04:32:20.158Z,100249.66
2023-02-08T04:34:46.683Z,100243.41
2023-02-08T04:37:13.199Z,100238.03
2023-02-08T04:39:39.878Z,100244.84
2023-02-08T04:44:39.661Z,100242.47
2023-02-08T04:47:06.179Z,100245.72
2023-02-08T04:49:32.794Z,100233.53
2023-02-08T04:51:59.394Z,100237.13
2023-02-08T04:54:25.998Z,100241.22
2023-02-08T04:56:52.593Z,100243.69
2023-02-08T04:59:19.554Z,100236.72
2023-02-08T05:01:46.154Z,100241.69
2023-02-08T05:04:12.844Z,100235.75
2023-02-08T05:06:39.436Z,100228.44
2023-02-08T05:09:09.919Z,100218.22
2023-02-08T05:11:37.141Z,100227.09
2023-02-08T05:14:04.808Z,100224.09
2023-02-08T05:16:31.562Z,100225.34
2023-02-08T05:18:58.279Z,100224.38
2023-02-08T05:21:24.876Z,100231.47
2023-02-08T05:23:52.389Z,100231.41
2023-02-08T05:26:19.383Z,100223.13
2023-02-08T05:28:46.145Z,100227.72
2023-02-08T05:31:17.585Z,100233.94
2023-02-08T05:33:44.241Z,100226.28
2023-02-08T05:36:11.110Z,100222.16
2023-02-08T05:41:09.653Z,100232.06
2023-02-08T05:43:36.580Z,100230.50
2023-02-08T05:46:03.376Z,100234.44
2023-02-08T05:48:33.150Z,100223.38
2023-02-08T05:51:00.116Z,100228.63
2023-02-08T05:53:27.444Z,100228.94
2023-02-08T05:55:54.059Z,100227.34
2023-02-08T05:58:20.555Z,100233.59
2023-02-08T06:00:47.296Z,100234.97
2023-02-08T06:03:14.081Z,100244.25
2023-02-08T06:05:41.210Z,100241.81
2023-02-08T06:10:40.237Z,100247.16
2023-02-08T06:13:06.999Z,100242.00
2023-02-08T06:15:33.562Z,100240.34
2023-02-08T06:18:00.145Z,100247.03
2023-02-08T06:20:26.647Z,100244.44
2023-02-08T06:22:53.259Z,100238.38
2023-02-08T06:25:19.827Z,100244.09
2023-02-08T06:27:46.312Z,100253.63
2023-02-08T06:30:13.261Z,100249.78
2023-02-08T06:32:39.839Z,100246.06
2023-02-08T06:35:07.060Z,100253.22
2023-02-08T06:37:33.573Z,100249.94
2023-02-08T06:42:38.926Z,100243.19
2023-02-08T06:45:08.364Z,100252.00
2023-02-08T06:47:34.878Z,100252.72
2023-02-08T06:50:01.352Z,100253.03
2023-02-08T06:52:27.843Z,100246.50
2023-02-08T06:54:54.468Z,100243.56
2023-02-08T06:57:21.045Z,100254.94
2023-02-08T06:59:47.562Z,100250.22
2023-02-08T07:02:17.060Z,100253.66
2023-02-08T07:04:44.155Z,100259.91
2023-02-08T07:07:12.343Z,100262.69
2023-02-08T07:09:39.093Z,100262.22
2023-02-08T07:12:05.914Z,100257.13
2023-02-08T07:14:34.077Z,100264.81
2023-02-08T07:17:01.969Z,100268.69
2023-02-08T07:19:29.051Z,100263.72
2023-02-08T07:21:56.379Z,100266.16
2023-02-08T07:24:23.937Z,100262.91
2023-02-08T07:26:50.487Z,100270.03
2023-02-08T07:29:17.016Z,100275.34
2023-02-08T07:31:43.639Z,100273.97
2023-02-08T07:34:10.217Z,100273.50
2023-02-08T07:36:36.863Z,100260.38
2023-02-08T07:39:03.910Z,100273.66
2023-02-08T07:41:31.154Z,100268.22
2023-02-08T07:43:59.935Z,100262.59
2023-02-08T07:46:26.580Z,100265.16
2023-02-08T07:48:53.555Z,100263.78
2023-02-08T07:51:20.160Z,100262.34
2023-02-08T07:53:46.861Z,100260.25
2023-02-08T07:56:13.461Z,100259.63
2023-02-08T07:58:40.828Z,100259.66
2023-02-08T08:01:21.415Z,100260.72
2023-02-08T08:03:50.190Z,100260.06
2023-02-08T08:06:16.916Z,100256.13
2023-02-08T08:08:47.471Z,100260.56
2023-02-08T08:11:15.313Z,100252.66
2023-02-08T08:13:42.072Z,100261.63
2023-02-08T08:16:08.927Z,100258.59
2023-02-08T08:18:36.117Z,100262.44
2023-02-08T08:21:03.425Z,100260.94
2023-02-08T08:23:30.648Z,100261.38
2023-02-08T08:25:57.216Z,100259.16
2023-02-08T08:28:23.902Z,100263.09
2023-02-08T08:30:50.611Z,100267.84
2023-02-08T08:33:17.212Z,100263.72
2023-02-08T08:35:47.193Z,100264.63
2023-02-08T08:38:13.946Z,100256.94
2023-02-08T08:40:40.880Z,100261.50
2023-02-08T08:43:07.720Z,100257.22
2023-02-08T08:45:36.304Z,100256.72
2023-02-08T08:48:05.829Z,100252.97
2023-02-08T08:50:32.429Z,100258.44
2023-02-08T08:52:58.994Z,100259.16
2023-02-08T08:55:26.126Z,100260.81
2023-02-08T08:57:53.635Z,100263.34
2023-02-08T09:00:20.304Z,100255.59
2023-02-08T09:02:46.813Z,100255.41
2023-02-08T09:05:13.509Z,100251.88
2023-02-08T09:07:40.068Z,100242.75
2023-02-08T09:10:06.782Z,100246.06
2023-02-08T09:12:33.371Z,100242.72
2023-02-08T09:14:59.917Z,100241.22
2023-02-08T09:17:26.494Z,100239.41
2023-02-08T09:19:52.994Z,100237.72
2023-02-08T09:22:20.358Z,100239.41
2023-02-08T09:29:57.027Z,100237.97
2023-02-08T09:32:23.675Z,100242.81
2023-02-08T09:34:50.295Z,100245.03
2023-02-08T09:37:18.138Z,100241.25
2023-02-08T09:42:28.269Z,100238.34
2023-02-08T09:45:19.570Z,100233.16
2023-02-08T09:48:18.532Z,100231.88
2023-02-08T09:50:50.880Z,100230.53
2023-02-08T09:53:28.345Z,100232.66
2023-02-08T09:56:04.893Z,100236.72
2023-02-08T09:58:37.226Z,100221.06
2023-02-08T10:01:10.624Z,100217.34
2023-02-08T10:03:40.430Z,100215.72
2023-02-08T10:06:11.716Z,100210.38
2023-02-08T10:08:39.054Z,100215.88
2023-02-08T10:11:36.121Z,100213.03
2023-02-08T10:14:18.440Z,100214.16
2023-02-08T10:16:55.791Z,100212.66
2023-02-08T10:19:40.914Z,100214.34
2023-02-08T10:22:31.297Z,100221.34
2023-02-08T10:25:23.806Z,100216.50
2023-02-08T10:28:06.983Z,100203.50
2023-02-08T10:30:55.301Z,100205.94
2023-02-08T10:33:37.582Z,100193.81
2023-02-08T10:36:14.608Z,100198.13
2023-02-08T10:38:46.829Z,100189.47
2023-02-08T10:41:22.782Z,100186.19
2023-02-08T10:43:59.659Z,100187.81
2023-02-08T10:46:32.352Z,100188.91
2023-02-08T10:51:54.415Z,100173.03
2023-02-08T10:54:21.063Z,100175.44
2023-02-08T10:59:58.737Z,100168.75
2023-02-08T11:02:31.513Z,100164.41
2023-02-08T11:04:59.749Z,100161.72
2023-02-08T11:07:26.331Z,100158.44
2023-02-08T11:09:53.291Z,100156.50
2023-02-08T11:12:23.057Z,100152.66
2023-02-08T11:14:52.317Z,100151.47
2023-02-08T11:17:31.575Z,100146.25
2023-02-08T11:19:59.489Z,100147.50
2023-02-08T11:22:31.208Z,100140.69
2023-02-08T11:25:05.743Z,100118.09
2023-02-08T11:27:36.321Z,100122.81
2023-02-08T11:30:14.649Z,100112.88
2023-02-08T11:35:25.922Z,100105.03
2023-02-08T11:37:58.016Z,100110.06
2023-02-08T11:40:37.924Z,100100.38
2023-02-08T11:43:05.578Z,100095.94
2023-02-08T11:45:35.585Z,100095.31
2023-02-08T11:48:05.161Z,100098.03
2023-02-08T11:50:39.275Z,100095.38
2023-02-08T11:53:16.906Z,100095.75
2023-02-08T11:58:25.195Z,100091.97
2023-02-08T12:01:20.494Z,100092.41
2023-02-08T12:06:58.701Z,100076.69
2023-02-08T12:09:48.357Z,100065.50
2023-02-08T12:12:24.185Z,100076.66
2023-02-08T12:15:22.908Z,100067.81
2023-02-08T12:20:47.184Z,100069.16
2023-02-08T12:23:52.290Z,100061.69
2023-02-08T12:26:32.538Z,100057.31
2023-02-08T12:29:15.271Z,100057.72
2023-02-08T12:31:49.670Z,100047.16
2023-02-08T12:34:34.968Z,100047.63
2023-02-08T12:37:37.297Z,100048.94
2023-02-08T12:40:44.070Z,100048.94
2023-02-08T12:43:26.537Z,100037.09
2023-02-08T12:46:14.856Z,100031.47
2023-02-08T12:49:22.368Z,100022.31
2023-02-08T12:54:43.064Z,100008.13
2023-02-08T12:57:14.520Z,100008.63
2023-02-08T13:00:04.701Z,100004.25
2023-02-08T13:03:12.146Z,99996.59
2023-02-08T13:05:53.491Z,99994.72
2023-02-08T13:08:36.245Z,99987.78
2023-02-08T13:11:19.731Z,99992.56
2023-02-08T13:13:55.709Z,99993.81
2023-02-08T13:16:27.741Z,99988.81
2023-02-08T13:19:24.917Z,99980.38
2023-02-08T13:21:54.055Z,99972.69
2023-02-08T13:24:23.334Z,99971.44
2023-02-08T13:26:50.093Z,99980.38
2023-02-08T13:32:13.381Z,99958.16
2023-02-08T13:34:51.845Z,99970.44
2023-02-08T13:37:31.560Z,99962.16
2023-02-08T13:40:21.563Z,99961.16
2023-02-08T13:42:52.597Z,99964.22
2023-02-08T13:45:44.100Z,99967.09
2023-02-08T13:48:14.406Z,99965.69
2023-02-08T13:50:43.181Z,99964.25
2023-02-08T13:53:10.355Z,99960.44
2023-02-08T13:55:44.293Z,99968.19
2023-02-08T13:58:13.804Z,99962.25
2023-02-08T14:00:56.723Z,99960.81
2023-02-08T14:03:28.839Z,99962.56
2023-02-08T14:05:59.124Z,99967.06
2023-02-08T14:08:53.802Z,99971.97
2023-02-08T14:11:35.562Z,99964.78
2023-02-08T14:14:15.818Z,99963.16
2023-02-08T14:16:44.814Z,99961.72
2023-02-08T14:19:18.247Z,99974.66
2023-02-08T14:21:47.765Z,99976.06
2023-02-08T14:24:24.384Z,99972.84
2023-02-08T14:27:04.906Z,99980.97
2023-02-08T14:29:33.122Z,99974.41
2023-02-08T14:32:00.486Z,99983.91
2023-02-08T14:37:10.611Z,99984.69
2023-02-08T14:39:37.580Z,99984.19
2023-02-08T14:42:08.868Z,99978.75
2023-02-08T14:44:38.111Z,99976.13
2023-02-08T14:47:35.982Z,99969.97
2023-02-08T14:53:04.790Z,99971.53
2023-02-08T14:55:38.069Z,99966.06
2023-02-08T15:00:40.105Z,99972.81
2023-02-08T15:03:14.781Z,99967.91
2023-02-08T15:08:32.238Z,99985.84
2023-02-08T15:10:59.044Z,99975.75
2023-02-08T15:13:25.783Z,99982.19
2023-02-08T15:15:57.780Z,99980.94
2023-02-08T15:21:15.915Z,99976.38
2023-02-08T15:28:55.841Z,99976.78
2023-02-08T15:31:28.621Z,99971.16
2023-02-08T15:33:55.450Z,99967.53
2023-02-08T15:39:13.029Z,99968.13
2023-02-08T15:41:39.552Z,99975.78
2023-02-08T15:44:23.815Z,99972.94
2023-02-08T15:46:55.642Z,99964.25
2023-02-08T15:49:46.224Z,99970.78
2023-02-08T15:52:17.972Z,99965.63
2023-02-08T15:54:45.574Z,99962.13
2023-02-08T16:00:13.053Z,99969.03
2023-02-08T16:02:39.788Z,99966.88
2023-02-08T16:05:30.637Z,99975.38
2023-02-08T16:07:58.313Z,99972.41
2023-02-08T16:10:27.750Z,99978.38
2023-02-08T16:12:57.660Z,99968.38
2023-02-08T16:15:35.147Z,99971.59
2023-02-08T16:18:01.699Z,99973.81
2023-02-08T16:23:29.960Z,99968.44
2023-02-08T16:25:58.377Z,99974.41
2023-02-08T16:28:28.295Z,99969.28
2023-02-08T16:33:38.123Z,99960.72
2023-02-08T16:36:05.161Z,99970.44
2023-02-08T16:38:34.278Z,99978.78
2023-02-08T16:41:12.690Z,99975.75
2023-02-08T16:43:44.247Z,99978.53
2023-02-08T16:46:11.016Z,99973.72
2023-02-08T16:48:42.320Z,99980.22
2023-02-08T16:56:39.983Z,99986.19
2023-02-08T16:59:07.062Z,99981.34
2023-02-08T17:01:34.428Z,99981.63
2023-02-08T17:04:01.100Z,99987.28
2023-02-08T17:11:44.286Z,99979.78
2023-02-08T17:14:10.917Z,99980.28
2023-02-08T17:16:40.289Z,99988.63
2023-02-08T17:19:07.322Z,99996.16
2023-02-08T17:21:33.893Z,100002.88
2023-02-08T17:24:01.626Z,99998.03
2023-02-08T17:26:32.140Z,100002.59
2023-02-08T17:28:59.398Z,100001.22
2023-02-08T17:31:28.298Z,99995.88
2023-02-08T17:33:55.846Z,99995.34
2023-02-08T17:36:22.506Z,100004.81
2023-02-08T17:38:49.172Z,100008.03
2023-02-08T17:41:21.032Z,100015.03
2023-02-08T17:46:30.652Z,100009.91
2023-02-08T17:49:00.658Z,100012.00
2023-02-08T17:51:28.232Z,100006.09
2023-02-08T17:53:54.747Z,100009.56
2023-02-08T17:56:27.556Z,100020.06
2023-02-08T17:58:55.934Z,100017.66
2023-02-08T18:01:25.182Z,100018.38
2023-02-08T18:03:52.732Z,100011.19
2023-02-08T18:08:52.628Z,100019.56
2023-02-08T18:11:20.967Z,100020.66
2023-02-08T18:13:49.498Z,100013.59
2023-02-08T18:16:22.739Z,100014.13
2023-02-08T18:18:49.563Z,100006.84
2023-02-08T18:21:18.768Z,100007.94
2023-02-08T18:23:46.130Z,100016.31
2023-02-08T18:26:15.995Z,100015.19
2023-02-08T18:28:42.602Z,100010.81
2023-02-08T18:31:14.622Z,100005.94
2023-02-08T18:33:43.042Z,100018.34
2023-02-08T18:36:11.683Z,100014.06
2023-02-08T18:38:40.287Z,100026.94
2023-02-08T18:41:11.300Z,100017.03
2023-02-08T18:43:39.272Z,100012.41
2023-02-08T18:46:09.966Z,100009.38
2023-02-08T18:51:10.785Z,100010.06
2023-02-08T18:56:21.494Z,100017.13
2023-02-08T18:58:48.218Z,100009.47
2023-02-08T19:01:18.418Z,100008.34
2023-02-08T19:06:25.841Z,100007.88
2023-02-08T19:08:55.698Z,99999.06
2023-02-08T19:11:27.669Z,99992.81
2023-02-08T19:13:57.156Z,100002.63
2023-02-08T19:16:24.783Z,100000.50
2023-02-08T19:24:06.499Z,99984.97
2023-02-08T19:26:37.005Z,99982.09
2023-02-08T19:31:38.223Z,99992.78
2023-02-08T19:34:06.190Z,99991.50
2023-02-08T19:39:15.072Z,99987.34
2023-02-08T19:44:19.939Z,99991.84
2023-02-08T19:46:51.971Z,99995.84
2023-02-08T19:49:19.378Z,99992.06
2023-02-08T19:51:46.185Z,99993.28
2023-02-08T19:54:15.612Z,99997.09
2023-02-08T19:56:42.330Z,99991.72
2023-02-08T19:59:21.306Z,99981.41
2023-02-08T20:01:48.466Z,99986.78
2023-02-08T20:06:53.966Z,99995.41
2023-02-08T20:09:20.672Z,99992.56
2023-02-08T20:11:57.860Z,99985.53
2023-02-08T20:16:58.407Z,99988.22
2023-02-08T20:19:25.832Z,99987.16
2023-02-08T20:21:52.754Z,99980.00
2023-02-08T20:24:19.661Z,99979.81
2023-02-08T20:26:48.061Z,99974.81
2023-02-08T20:29:15.237Z,99968.94
2023-02-08T20:31:43.778Z,99976.53
2023-02-08T20:37:06.216Z,99971.03
2023-02-08T20:42:14.094Z,99964.09
2023-02-08T20:44:40.800Z,99965.19
2023-02-08T20:47:09.050Z,99968.06
2023-02-08T20:49:36.280Z,99958.41
2023-02-08T20:52:02.852Z,99962.50
2023-02-08T20:54:29.365Z,99966.50
2023-02-08T20:56:56.470Z,99961.66
2023-02-08T20:59:23.293Z,99966.06
2023-02-08T21:01:49.955Z,99973.22
2023-02-08T21:04:18.108Z,99970.50
2023-02-08T21:06:46.320Z,99969.44
2023-02-08T21:09:15.017Z,99962.41
2023-02-08T21:11:43.238Z,99963.38
2023-02-08T21:14:15.378Z,99976.69
2023-02-08T21:16:42.111Z,99965.31
2023-02-08T21:19:10.867Z,99960.81
2023-02-08T21:21:37.560Z,99961.88
2023-02-08T21:24:04.611Z,99959.09
2023-02-08T21:26:31.254Z,99947.47
2023-02-08T21:28:58.907Z,99958.06
2023-02-08T21:31:26.320Z,99961.78
2023-02-08T21:36:30.752Z,99960.53
2023-02-08T21:38:58.360Z,99958.25
2023-02-08T21:41:30.637Z,99960.22
2023-02-08T21:43:59.328Z,99952.94
2023-02-08T21:46:27.895Z,99948.09
2023-02-08T21:49:21.693Z,99943.50
2023-02-08T21:52:06.893Z,99945.81
2023-02-08T21:54:44.665Z,99949.22
2023-02-08T21:57:29.380Z,99948.75
2023-02-08T22:00:01.391Z,99948.94
2023-02-08T22:02:29.881Z,99946.44
2023-02-08T22:04:58.851Z,99944.19
2023-02-08T22:07:26.376Z,99937.91
2023-02-08T22:09:53.510Z,99939.81
2023-02-08T22:12:22.174Z,99942.44
2023-02-08T22:14:49.620Z,99934.44
2023-02-08T22:17:16.399Z,99941.09
2023-02-08T22:19:43.327Z,99938.47
2023-02-08T22:22:11.234Z,99945.06
2023-02-08T22:24:37.906Z,99943.22
2023-02-08T22:27:04.876Z,99936.97
2023-02-08T22:29:31.452Z,99943.34
2023-02-08T22:31:58.097Z,99943.88
2023-02-08T22:34:26.855Z,99939.44
2023-02-08T22:36:53.610Z,99935.34
2023-02-08T22:39:20.510Z,99931.00
2023-02-08T22:41:47.068Z,99931.75
2023-02-08T22:44:13.600Z,99934.06
2023-02-08T22:49:13.174Z,99928.91
2023-02-08T22:51:39.787Z,99932.50
2023-02-08T22:54:06.414Z,99923.44
2023-02-08T22:56:33.186Z,99920.56
2023-02-08T22:59:00.324Z,99924.34
2023-02-08T23:01:27.700Z,99907.34
2023-02-08T23:03:54.359Z,99918.34
2023-02-08T23:06:21.009Z,99908.66
2023-02-08T23:08:48.290Z,99916.19
2023-02-08T23:11:15.838Z,99913.25
2023-02-08T23:13:42.463Z,99900.19
2023-02-08T23:16:12.683Z,99905.53
2023-02-08T23:18:40.014Z,99906.25
2023-02-08T23:21:16.579Z,99901.53
2023-02-08T23:23:44.225Z,99904.09
2023-02-08T23:26:14.754Z,99912.47
2023-02-08T23:28:41.425Z,99908.25
2023-02-08T23:31:09.872Z,99905.50
2023-02-08T23:33:37.800Z,99905.22
2023-02-08T23:36:09.097Z,99900.81
2023-02-08T23:38:35.816Z,99901.97
2023-02-08T23:41:07.420Z,99901.47
2023-02-08T23:43:34.404Z,99913.34
2023-02-08T23:46:07.087Z,99903.28
2023-02-08T23:48:34.149Z,99905.22
2023-02-08T23:51:02.819Z,99907.47
2023-02-08T23:53:32.716Z,99902.44
2023-02-08T23:56:29.989Z,99899.06
2023-02-08T23:58:58.791Z,99898.28
